sensor_id;sensor_type;location;lat;lon;timestamp;pressure;altitude;pressure_sealevel;temperature;humidity
2339;BME280;1180;51.438;6.978;2023-02-10T00:02:22;102177.34;;;7.52;73.59
2339;BME280;1180;51.438;6.978;2023-02-10T00:04:47;102178.25;;;7.48;74.29
2339;BME280;1180;51.438;6.978;2023-02-10T00:07:12;102180.72;;;7.56;74.23
2339;BME280;1180;51.438;6.978;2023-02-10T00:09:38;102184.03;;;7.62;74.15
2339;BME280;1180;51.438;6.978;2023-02-10T00:12:03;102189.97;;;7.63;74.25
2339;BME280;1180;51.438;6.978;2023-02-10T00:14:29;102194.25;;;7.61;74.32
2339;BME280;1180;51.438;6.978;2023-02-10T00:16:55;102189.13;;;7.62;74.46
2339;BME280;1180;51.438;6.978;2023-02-10T00:19:23;102196.03;;;7.56;75.12
2339;BME280;1180;51.438;6.978;2023-02-10T00:21:50;102196.75;;;7.65;74.81
2339;BME280;1180;51.438;6.978;2023-02-10T00:24:15;102195.06;;;7.64;75.00
2339;BME280;1180;51.438;6.978;2023-02-10T00:26:42;102198.50;;;7.62;74.79
2339;BME280;1180;51.438;6.978;2023-02-10T00:29:07;102194.25;;;7.62;75.07
2339;BME280;1180;51.438;6.978;2023-02-10T00:31:32;102193.38;;;7.60;75.17
2339;BME280;1180;51.438;6.978;2023-02-10T00:33:58;102195.94;;;7.62;75.16
2339;BME280;1180;51.438;6.978;2023-02-10T00:36:23;102190.75;;;7.66;75.22
2339;BME280;1180;51.438;6.978;2023-02-10T00:38:50;102193.47;;;7.56;75.76
2339;BME280;1180;51.438;6.978;2023-02-10T00:41:17;102186.59;;;7.59;75.85
2339;BME280;1180;51.438;6.978;2023-02-10T00:43:43;102199.34;;;7.62;75.91
2339;BME280;1180;51.438;6.978;2023-02-10T00:46:13;102197.56;;;7.66;76.20
2339;BME280;1180;51.438;6.978;2023-02-10T00:48:39;102194.97;;;7.69;76.16
2339;BME280;1180;51.438;6.978;2023-02-10T00:51:05;102199.09;;;7.76;76.19
2339;BME280;1180;51.438;6.978;2023-02-10T00:53:31;102199.16;;;7.75;76.14
2339;BME280;1180;51.438;6.978;2023-02-10T00:55:57;102200.91;;;7.71;76.10
2339;BME280;1180;51.438;6.978;2023-02-10T00:58:23;102201.72;;;7.73;76.33
2339;BME280;1180;51.438;6.978;2023-02-10T01:00:48;102193.31;;;7.66;76.56
2339;BME280;1180;51.438;6.978;2023-02-10T01:03:14;102201.91;;;7.59;77.12
2339;BME280;1180;51.438;6.978;2023-02-10T01:05:39;102195.00;;;7.66;77.33
2339;BME280;1180;51.438;6.978;2023-02-10T01:08:05;102196.75;;;7.65;77.19
2339;BME280;1180;51.438;6.978;2023-02-10T01:10:33;102195.81;;;7.70;77.27
2339;BME280;1180;51.438;6.978;2023-02-10T01:13:06;102204.41;;;7.65;77.24
2339;BME280;1180;51.438;6.978;2023-02-10T01:15:32;102205.25;;;7.66;77.75
2339;BME280;1180;51.438;6.978;2023-02-10T01:17:58;102209.53;;;7.65;77.76
2339;BME280;1180;51.438;6.978;2023-02-10T01:20:24;102211.28;;;7.60;77.86
2339;BME280;1180;51.438;6.978;2023-02-10T01:22:50;102209.53;;;7.65;77.85
2339;BME280;1180;51.438;6.978;2023-02-10T01:25:16;102211.22;;;7.65;78.12
2339;BME280;1180;51.438;6.978;2023-02-10T01:27:41;102216.34;;;7.65;77.87
2339;BME280;1180;51.438;6.978;2023-02-10T01:30:07;102215.50;;;7.64;78.05
2339;BME280;1180;51.438;6.978;2023-02-10T01:32:32;102212.06;;;7.65;78.16
2339;BME280;1180;51.438;6.978;2023-02-10T01:34:58;102215.63;;;7.55;78.31
2339;BME280;1180;51.438;6.978;2023-02-10T01:37:23;102219.81;;;7.61;78.41
2339;BME280;1180;51.438;6.978;2023-02-10T01:39:48;102226.66;;;7.59;78.73
2339;BME280;1180;51.438;6.978;2023-02-10T01:42:14;102230.03;;;7.59;78.64
2339;BME280;1180;51.438;6.978;2023-02-10T01:47:06;102240.25;;;7.62;78.94
2339;BME280;1180;51.438;6.978;2023-02-10T01:49:34;102243.63;;;7.63;78.75
2339;BME280;1180;51.438;6.978;2023-02-10T01:52:16;102239.38;;;7.60;78.96
2339;BME280;1180;51.438;6.978;2023-02-10T01:54:45;102236.81;;;7.60;78.93
2339;BME280;1180;51.438;6.978;2023-02-10T01:57:12;102237.06;;;7.45;79.33
2339;BME280;1180;51.438;6.978;2023-02-10T01:59:39;102243.00;;;7.48;79.72
2339;BME280;1180;51.438;6.978;2023-02-10T02:02:06;102242.94;;;7.51;79.59
2339;BME280;1180;51.438;6.978;2023-02-10T02:07:09;102235.31;;;7.48;79.72
2339;BME280;1180;51.438;6.978;2023-02-10T02:09:35;102232.78;;;7.47;79.96
2339;BME280;1180;51.438;6.978;2023-02-10T02:12:13;102237.78;;;7.55;79.81
2339;BME280;1180;51.438;6.978;2023-02-10T02:17:33;102242.84;;;7.56;79.76
2339;BME280;1180;51.438;6.978;2023-02-10T02:34:21;102254.13;;;7.43;79.66
2339;BME280;1180;51.438;6.978;2023-02-10T02:36:57;102256.81;;;7.33;79.66
2339;BME280;1180;51.438;6.978;2023-02-10T02:39:24;102253.53;;;7.23;80.06
2339;BME280;1180;51.438;6.978;2023-02-10T02:42:24;102251.88;;;7.19;80.11
2339;BME280;1180;51.438;6.978;2023-02-10T02:44:59;102252.72;;;7.21;80.18
2339;BME280;1180;51.438;6.978;2023-02-10T02:47:36;102247.56;;;7.23;79.80
2339;BME280;1180;51.438;6.978;2023-02-10T02:50:35;102248.47;;;7.19;80.13
2339;BME280;1180;51.438;6.978;2023-02-10T03:01:00;102263.03;;;7.11;80.52
2339;BME280;1180;51.438;6.978;2023-02-10T03:03:32;102254.56;;;7.07;80.13
2339;BME280;1180;51.438;6.978;2023-02-10T03:05:59;102253.66;;;7.11;80.25
2339;BME280;1180;51.438;6.978;2023-02-10T03:08:25;102250.38;;;7.03;80.36
2339;BME280;1180;51.438;6.978;2023-02-10T03:10:50;102239.38;;;6.99;80.43
2339;BME280;1180;51.438;6.978;2023-02-10T03:13:16;102226.66;;;6.93;80.29
2339;BME280;1180;51.438;6.978;2023-02-10T03:15:41;102225.81;;;6.92;80.58
2339;BME280;1180;51.438;6.978;2023-02-10T03:18:07;102228.38;;;6.92;80.80
2339;BME280;1180;51.438;6.978;2023-02-10T03:20:32;102222.44;;;6.89;81.08
2339;BME280;1180;51.438;6.978;2023-02-10T03:22:58;102218.16;;;6.91;80.90
2339;BME280;1180;51.438;6.978;2023-02-10T03:25:23;102217.34;;;6.89;81.00
2339;BME280;1180;51.438;6.978;2023-02-10T03:27:48;102214.78;;;6.89;80.92
2339;BME280;1180;51.438;6.978;2023-02-10T03:30:14;102222.44;;;6.89;81.06
2339;BME280;1180;51.438;6.978;2023-02-10T03:32:39;102217.50;;;6.76;81.42
2339;BME280;1180;51.438;6.978;2023-02-10T03:35:05;102215.78;;;6.78;81.46
2339;BME280;1180;51.438;6.978;2023-02-10T03:37:30;102226.84;;;6.76;81.32
2339;BME280;1180;51.438;6.978;2023-02-10T03:39:56;102224.31;;;6.73;81.61
2339;BME280;1180;51.438;6.978;2023-02-10T03:42:21;102229.41;;;6.77;81.38
2339;BME280;1180;51.438;6.978;2023-02-10T03:44:46;102234.50;;;6.77;81.35
2339;BME280;1180;51.438;6.978;2023-02-10T03:47:12;102238.78;;;6.75;81.11
2339;BME280;1180;51.438;6.978;2023-02-10T03:49:37;102236.28;;;6.68;81.37
2339;BME280;1180;51.438;6.978;2023-02-10T03:52:02;102239.72;;;6.68;81.56
2339;BME280;1180;51.438;6.978;2023-02-10T03:54:28;102243.16;;;6.62;81.51
2339;BME280;1180;51.438;6.978;2023-02-10T03:56:53;102245.75;;;6.58;82.11
2339;BME280;1180;51.438;6.978;2023-02-10T03:59:19;102239.78;;;6.60;81.82
2339;BME280;1180;51.438;6.978;2023-02-10T04:01:45;102252.53;;;6.60;81.63
2339;BME280;1180;51.438;6.978;2023-02-10T04:04:11;102240.75;;;6.50;81.88
2339;BME280;1180;51.438;6.978;2023-02-10T04:06:36;102251.69;;;6.60;81.60
2339;BME280;1180;51.438;6.978;2023-02-10T04:09:01;102245.81;;;6.52;81.65
2339;BME280;1180;51.438;6.978;2023-02-10T04:11:27;102245.03;;;6.45;82.33
2339;BME280;1180;51.438;6.978;2023-02-10T04:13:52;102243.38;;;6.42;82.28
2339;BME280;1180;51.438;6.978;2023-02-10T04:16:18;102243.38;;;6.42;82.38
2339;BME280;1180;51.438;6.978;2023-02-10T04:18:44;102250.97;;;6.45;82.26
2339;BME280;1180;51.438;6.978;2023-02-10T04:21:11;102247.50;;;6.54;82.06
2339;BME280;1180;51.438;6.978;2023-02-10T04:23:37;102244.19;;;6.43;81.79
2339;BME280;1180;51.438;6.978;2023-02-10T04:26:03;102236.63;;;6.35;82.64
2339;BME280;1180;51.438;6.978;2023-02-10T04:28:29;102241.72;;;6.38;82.41
2339;BME280;1180;51.438;6.978;2023-02-10T04:30:56;102236.63;;;6.35;82.64
2339;BME280;1180;51.438;6.978;2023-02-10T04:33:22;102245.97;;;6.34;82.58
2339;BME280;1180;51.438;6.978;2023-02-10T04:35:50;102257.97;;;6.26;82.70
2339;BME280;1180;51.438;6.978;2023-02-10T04:38:16;102252.03;;;6.22;83.54
2339;BME280;1180;51.438;6.978;2023-02-10T04:40:42;102256.28;;;6.20;83.74
2339;BME280;1180;51.438;6.978;2023-02-10T04:43:08;102262.19;;;6.26;83.67
2339;BME280;1180;51.438;6.978;2023-02-10T04:45:33;102258.78;;;6.27;83.84
2339;BME280;1180;51.438;6.978;2023-02-10T04:47:59;102245.97;;;6.36;83.45
2339;BME280;1180;51.438;6.978;2023-02-10T04:50:24;102254.56;;;6.27;83.75
2339;BME280;1180;51.438;6.978;2023-02-10T04:52:50;102254.63;;;6.18;84.13
2339;BME280;1180;51.438;6.978;2023-02-10T04:55:15;102247.78;;;6.23;84.30
2339;BME280;1180;51.438;6.978;2023-02-10T04:57:40;102253.72;;;6.25;84.10
2339;BME280;1180;51.438;6.978;2023-02-10T05:00:06;102252.84;;;6.29;83.91
2339;BME280;1180;51.438;6.978;2023-02-10T05:02:32;102255.34;;;6.34;83.65
2339;BME280;1180;51.438;6.978;2023-02-10T05:04:57;102251.09;;;6.36;83.27
2339;BME280;1180;51.438;6.978;2023-02-10T05:07:23;102249.41;;;6.32;83.44
2339;BME280;1180;51.438;6.978;2023-02-10T05:09:48;102253.69;;;6.30;83.53
2339;BME280;1180;51.438;6.978;2023-02-10T05:12:14;102248.59;;;6.27;83.67
2339;BME280;1180;51.438;6.978;2023-02-10T05:14:39;102243.50;;;6.27;83.91
2339;BME280;1180;51.438;6.978;2023-02-10T05:17:05;102254.56;;;6.27;83.77
2339;BME280;1180;51.438;6.978;2023-02-10T05:19:30;102254.53;;;6.30;83.70
2339;BME280;1180;51.438;6.978;2023-02-10T05:21:55;102246.84;;;6.35;83.94
2339;BME280;1180;51.438;6.978;2023-02-10T05:24:20;102248.59;;;6.30;83.76
2339;BME280;1180;51.438;6.978;2023-02-10T05:26:46;102259.66;;;6.26;84.18
2339;BME280;1180;51.438;6.978;2023-02-10T05:29:11;102266.50;;;6.20;84.07
2339;BME280;1180;51.438;6.978;2023-02-10T05:31:37;102272.50;;;6.12;84.89
2339;BME280;1180;51.438;6.978;2023-02-10T05:34:02;102273.41;;;6.09;85.22
2339;BME280;1180;51.438;6.978;2023-02-10T05:36:27;102278.47;;;6.12;85.48
2339;BME280;1180;51.438;6.978;2023-02-10T05:38:53;102275.91;;;6.11;85.35
2339;BME280;1180;51.438;6.978;2023-02-10T05:41:37;102281.06;;;6.06;85.45
2339;BME280;1180;51.438;6.978;2023-02-10T05:44:02;102288.72;;;6.06;85.84
2339;BME280;1180;51.438;6.978;2023-02-10T05:46:28;102290.31;;;6.19;86.69
2339;BME280;1180;51.438;6.978;2023-02-10T05:48:54;102286.03;;;6.21;85.97
2339;BME280;1180;51.438;6.978;2023-02-10T05:51:19;102291.91;;;6.33;85.26
2339;BME280;1180;51.438;6.978;2023-02-10T05:53:44;102297.81;;;6.36;84.86
2339;BME280;1180;51.438;6.978;2023-02-10T05:56:10;102296.94;;;6.41;85.07
2339;BME280;1180;51.438;6.978;2023-02-10T05:58:35;102297.03;;;6.27;85.33
2339;BME280;1180;51.438;6.978;2023-02-10T06:01:00;102298.72;;;6.29;85.35
2339;BME280;1180;51.438;6.978;2023-02-10T06:03:30;102291.06;;;6.32;85.74
2339;BME280;1180;51.438;6.978;2023-02-10T06:05:55;102297.84;;;6.35;85.83
2339;BME280;1180;51.438;6.978;2023-02-10T06:08:20;102296.06;;;6.42;85.05
2339;BME280;1180;51.438;6.978;2023-02-10T06:10:46;102300.34;;;6.40;85.46
2339;BME280;1180;51.438;6.978;2023-02-10T06:13:11;102299.38;;;6.52;85.00
2339;BME280;1180;51.438;6.978;2023-02-10T06:15:36;102304.56;;;6.42;84.96
2339;BME280;1180;51.438;6.978;2023-02-10T06:18:02;102298.69;;;6.37;85.67
2339;BME280;1180;51.438;6.978;2023-02-10T06:20:27;102296.94;;;6.42;85.54
2339;BME280;1180;51.438;6.978;2023-02-10T06:22:52;102303.63;;;6.54;84.90
2339;BME280;1180;51.438;6.978;2023-02-10T06:25:18;102305.31;;;6.54;84.61
2339;BME280;1180;51.438;6.978;2023-02-10T06:27:45;102310.47;;;6.46;84.87
2339;BME280;1180;51.438;6.978;2023-02-10T06:30:11;102318.13;;;6.49;84.92
2339;BME280;1180;51.438;6.978;2023-02-10T06:32:37;102323.19;;;6.55;84.89
2339;BME280;1180;51.438;6.978;2023-02-10T06:35:02;102323.97;;;6.59;84.55
2339;BME280;1180;51.438;6.978;2023-02-10T06:37:28;102321.47;;;6.56;84.27
2339;BME280;1180;51.438;6.978;2023-02-10T06:39:53;102326.56;;;6.57;84.73
2339;BME280;1180;51.438;6.978;2023-02-10T06:42:19;102336.78;;;6.54;84.97
2339;BME280;1180;51.438;6.978;2023-02-10T06:44:44;102328.28;;;6.54;85.07
2339;BME280;1180;51.438;6.978;2023-02-10T06:47:09;102324.00;;;6.56;85.15
2339;BME280;1180;51.438;6.978;2023-02-10T06:49:35;102327.38;;;6.58;84.79
2339;BME280;1180;51.438;6.978;2023-02-10T06:52:01;102331.63;;;6.59;84.95
2339;BME280;1180;51.438;6.978;2023-02-10T06:54:26;102324.78;;;6.67;84.69
2339;BME280;1180;51.438;6.978;2023-02-10T06:56:52;102320.53;;;6.64;84.61
2339;BME280;1180;51.438;6.978;2023-02-10T06:59:17;102322.25;;;6.62;84.67
2339;BME280;1180;51.438;6.978;2023-02-10T07:01:43;102317.19;;;6.59;84.73
2339;BME280;1180;51.438;6.978;2023-02-10T07:04:08;102308.69;;;6.57;85.12
2339;BME280;1180;51.438;6.978;2023-02-10T07:06:33;102312.06;;;6.61;84.99
2339;BME280;1180;51.438;6.978;2023-02-10T07:08:59;102312.88;;;6.64;84.62
2339;BME280;1180;51.438;6.978;2023-02-10T07:11:24;102309.50;;;6.62;84.53
2339;BME280;1180;51.438;6.978;2023-02-10T07:13:49;102317.16;;;6.62;84.88
2339;BME280;1180;51.438;6.978;2023-02-10T07:16:15;102316.25;;;6.68;84.55
2339;BME280;1180;51.438;6.978;2023-02-10T07:18:41;102318.00;;;6.63;84.47
2339;BME280;1180;51.438;6.978;2023-02-10T07:21:07;102321.41;;;6.65;84.67
2339;BME280;1180;51.438;6.978;2023-02-10T07:23:32;102312.03;;;6.65;84.38
2339;BME280;1180;51.438;6.978;2023-02-10T07:25:57;102311.06;;;6.76;84.52
2339;BME280;1180;51.438;6.978;2023-02-10T07:28:23;102311.91;;;6.75;83.89
2339;BME280;1180;51.438;6.978;2023-02-10T07:30:48;102313.69;;;6.71;84.14
2339;BME280;1180;51.438;6.978;2023-02-10T07:33:13;102317.88;;;6.74;83.72
2339;BME280;1180;51.438;6.978;2023-02-10T07:35:39;102323.03;;;6.72;83.99
2339;BME280;1180;51.438;6.978;2023-02-10T07:38:04;102323.81;;;6.76;83.95
2339;BME280;1180;51.438;6.978;2023-02-10T07:40:29;102318.69;;;6.79;84.14
2339;BME280;1180;51.438;6.978;2023-02-10T07:42:56;102317.84;;;6.78;84.00
2339;BME280;1180;51.438;6.978;2023-02-10T07:45:22;102328.09;;;6.75;84.40
2339;BME280;1180;51.438;6.978;2023-02-10T07:47:47;102323.78;;;6.79;84.64
2339;BME280;1180;51.438;6.978;2023-02-10T07:50:13;102330.63;;;6.77;84.24
2339;BME280;1180;51.438;6.978;2023-02-10T07:52:38;102331.47;;;6.76;84.48
2339;BME280;1180;51.438;6.978;2023-02-10T07:55:06;102328.00;;;6.85;84.22
2339;BME280;1180;51.438;6.978;2023-02-10T07:57:31;102329.75;;;6.79;84.39
2339;BME280;1180;51.438;6.978;2023-02-10T07:59:57;102328.88;;;6.82;84.64
2339;BME280;1180;51.438;6.978;2023-02-10T08:02:22;102330.50;;;6.89;84.05
2339;BME280;1180;51.438;6.978;2023-02-10T08:04:47;102333.91;;;6.91;83.60
2339;BME280;1180;51.438;6.978;2023-02-10T08:07:13;102335.69;;;6.83;83.70
2339;BME280;1180;51.438;6.978;2023-02-10T08:09:38;102335.72;;;6.80;83.70
2339;BME280;1180;51.438;6.978;2023-02-10T08:12:04;102339.97;;;6.79;83.97
2339;BME280;1180;51.438;6.978;2023-02-10T08:14:30;102339.97;;;6.79;83.81
2339;BME280;1180;51.438;6.978;2023-02-10T08:16:56;102338.16;;;6.88;83.52
2339;BME280;1180;51.438;6.978;2023-02-10T08:19:22;102346.72;;;6.85;83.29
2339;BME280;1180;51.438;6.978;2023-02-10T08:21:47;102344.94;;;6.92;83.06
2339;BME280;1180;51.438;6.978;2023-02-10T08:24:13;102354.38;;;6.85;83.23
2339;BME280;1180;51.438;6.978;2023-02-10T08:26:40;102358.69;;;6.78;82.94
2339;BME280;1180;51.438;6.978;2023-02-10T08:29:08;102357.00;;;6.76;83.23
2339;BME280;1180;51.438;6.978;2023-02-10T08:31:33;102355.38;;;6.70;83.38
2339;BME280;1180;51.438;6.978;2023-02-10T08:33:58;102350.25;;;6.70;83.55
2339;BME280;1180;51.438;6.978;2023-02-10T08:36:24;102352.84;;;6.67;83.33
2339;BME280;1180;51.438;6.978;2023-02-10T08:38:49;102354.47;;;6.74;83.15
2339;BME280;1180;51.438;6.978;2023-02-10T08:41:16;102352.88;;;6.62;83.44
2339;BME280;1180;51.438;6.978;2023-02-10T08:43:41;102358.75;;;6.72;83.10
2339;BME280;1180;51.438;6.978;2023-02-10T08:46:07;102361.28;;;6.71;83.06
2339;BME280;1180;51.438;6.978;2023-02-10T08:48:33;102364.69;;;6.74;83.04
2339;BME280;1180;51.438;6.978;2023-02-10T08:50:59;102365.53;;;6.72;83.04
2339;BME280;1180;51.438;6.978;2023-02-10T08:53:25;102356.16;;;6.74;82.93
2339;BME280;1180;51.438;6.978;2023-02-10T08:55:57;102363.84;;;6.71;82.62
2339;BME280;1180;51.438;6.978;2023-02-10T08:58:23;102370.63;;;6.76;82.68
2339;BME280;1180;51.438;6.978;2023-02-10T09:00:48;102362.13;;;6.74;82.89
2339;BME280;1180;51.438;6.978;2023-02-10T09:03:14;102361.28;;;6.72;83.01
2339;BME280;1180;51.438;6.978;2023-02-10T09:05:40;102373.06;;;6.87;82.90
2339;BME280;1180;51.438;6.978;2023-02-10T09:08:06;102373.84;;;6.94;82.32
2339;BME280;1180;51.438;6.978;2023-02-10T09:10:31;102374.69;;;6.96;81.99
2339;BME280;1180;51.438;6.978;2023-02-10T09:12:56;102377.22;;;6.99;82.11
2339;BME280;1180;51.438;6.978;2023-02-10T09:15:22;102387.44;;;6.99;82.33
2339;BME280;1180;51.438;6.978;2023-02-10T09:17:47;102386.66;;;6.88;82.69
2339;BME280;1180;51.438;6.978;2023-02-10T09:20:12;102387.50;;;6.91;82.69
2339;BME280;1180;51.438;6.978;2023-02-10T09:22:38;102386.69;;;6.86;83.56
2339;BME280;1180;51.438;6.978;2023-02-10T09:25:03;102395.00;;;7.07;82.79
2339;BME280;1180;51.438;6.978;2023-02-10T09:27:28;102394.16;;;7.06;82.43
2339;BME280;1180;51.438;6.978;2023-02-10T09:29:54;102398.47;;;7.00;82.85
2339;BME280;1180;51.438;6.978;2023-02-10T09:32:19;102394.97;;;7.10;82.78
2339;BME280;1180;51.438;6.978;2023-02-10T09:34:44;102397.53;;;7.08;82.77
2339;BME280;1180;51.438;6.978;2023-02-10T09:37:10;102411.97;;;7.11;82.83
2339;BME280;1180;51.438;6.978;2023-02-10T09:39:36;102411.09;;;7.12;82.71
2339;BME280;1180;51.438;6.978;2023-02-10T09:42:14;102407.63;;;7.21;83.07
2339;BME280;1180;51.438;6.978;2023-02-10T09:44:51;102400.72;;;7.32;82.38
2339;BME280;1180;51.438;6.978;2023-02-10T09:53:00;102410.06;;;7.32;82.13
2339;BME280;1180;51.438;6.978;2023-02-10T09:55:43;102400.66;;;7.39;81.99
2339;BME280;1180;51.438;6.978;2023-02-10T10:00:52;102383.63;;;7.37;82.16
2339;BME280;1180;51.438;6.978;2023-02-10T10:03:34;102387.75;;;7.48;82.06
2339;BME280;1180;51.438;6.978;2023-02-10T10:08:50;102376.59;;;7.55;81.75
2339;BME280;1180;51.438;6.978;2023-02-10T10:11:25;102375.75;;;7.55;82.03
2339;BME280;1180;51.438;6.978;2023-02-10T10:13:52;102375.69;;;7.62;81.71
2339;BME280;1180;51.438;6.978;2023-02-10T10:19:08;102387.44;;;7.74;81.28
2339;BME280;1180;51.438;6.978;2023-02-10T10:24:43;102400.00;;;7.91;81.04
2339;BME280;1180;51.438;6.978;2023-02-10T10:27:37;102404.91;;;8.07;80.58
2339;BME280;1180;51.438;6.978;2023-02-10T10:30:17;102403.03;;;8.20;80.44
2339;BME280;1180;51.438;6.978;2023-02-10T10:32:48;102403.75;;;8.28;79.98
2339;BME280;1180;51.438;6.978;2023-02-10T10:35:21;102408.88;;;8.28;79.12
2339;BME280;1180;51.438;6.978;2023-02-10T10:37:49;102404.56;;;8.32;79.21
2339;BME280;1180;51.438;6.978;2023-02-10T10:40:29;102413.06;;;8.34;78.69
2339;BME280;1180;51.438;6.978;2023-02-10T10:42:59;102405.44;;;8.31;78.44
2339;BME280;1180;51.438;6.978;2023-02-10T10:45:46;102409.75;;;8.26;78.68
2339;BME280;1180;51.438;6.978;2023-02-10T10:48:18;102414.94;;;8.21;79.52
2339;BME280;1180;51.438;6.978;2023-02-10T10:50:46;102406.50;;;8.16;80.12
2339;BME280;1180;51.438;6.978;2023-02-10T10:53:22;102403.91;;;8.17;80.16
2339;BME280;1180;51.438;6.978;2023-02-10T10:55:51;102405.44;;;8.28;79.31
2339;BME280;1180;51.438;6.978;2023-02-10T11:00:55;102399.38;;;8.36;79.35
2339;BME280;1180;51.438;6.978;2023-02-10T11:03:21;102401.75;;;8.50;79.33
2339;BME280;1180;51.438;6.978;2023-02-10T11:06:12;102396.50;;;8.58;78.73
2339;BME280;1180;51.438;6.978;2023-02-10T11:08:42;102388.78;;;8.61;78.30
2339;BME280;1180;51.438;6.978;2023-02-10T11:11:14;102387.78;;;8.70;77.95
2339;BME280;1180;51.438;6.978;2023-02-10T11:13:48;102375.69;;;8.80;77.40
2339;BME280;1180;51.438;6.978;2023-02-10T11:16:15;102378.19;;;8.83;77.19
2339;BME280;1180;51.438;6.978;2023-02-10T11:21:20;102377.78;;;9.05;76.37
2339;BME280;1180;51.438;6.978;2023-02-10T11:23:53;102365.66;;;9.15;75.79
2339;BME280;1180;51.438;6.978;2023-02-10T11:26:24;102372.19;;;9.30;75.24
2339;BME280;1180;51.438;6.978;2023-02-10T11:28:50;102365.09;;;9.43;75.06
2339;BME280;1180;51.438;6.978;2023-02-10T11:31:27;102360.78;;;9.45;74.34
2339;BME280;1180;51.438;6.978;2023-02-10T11:36:42;102347.09;;;9.47;74.54
2339;BME280;1180;51.438;6.978;2023-02-10T11:41:54;102346.28;;;9.44;74.12
2339;BME280;1180;51.438;6.978;2023-02-10T11:44:26;102346.38;;;9.39;73.73
2339;BME280;1180;51.438;6.978;2023-02-10T11:47:11;102341.22;;;9.41;73.61
2339;BME280;1180;51.438;6.978;2023-02-10T11:49:44;102341.97;;;9.46;73.31
2339;BME280;1180;51.438;6.978;2023-02-10T11:52:10;102336.13;;;9.39;73.62
2339;BME280;1180;51.438;6.978;2023-02-10T11:54:36;102342.78;;;9.48;72.99
2339;BME280;1180;51.438;6.978;2023-02-10T11:57:16;102345.16;;;9.57;73.18
2339;BME280;1180;51.438;6.978;2023-02-10T12:00:29;102329.09;;;9.49;73.26
2339;BME280;1180;51.438;6.978;2023-02-10T12:18:59;102304.94;;;9.97;69.37
2339;BME280;1180;51.438;6.978;2023-02-10T12:21:59;102293.59;;;10.07;69.38
2339;BME280;1180;51.438;6.978;2023-02-10T12:27:44;102289.00;;;9.84;70.18
2339;BME280;1180;51.438;6.978;2023-02-10T12:33:02;102285.47;;;9.88;69.73
2339;BME280;1180;51.438;6.978;2023-02-10T12:38:55;102278.50;;;9.95;68.96
2339;BME280;1180;51.438;6.978;2023-02-10T12:50:10;102260.69;;;10.23;66.58
2339;BME280;1180;51.438;6.978;2023-02-10T12:53:05;102266.50;;;10.32;65.86
2339;BME280;1180;51.438;6.978;2023-02-10T12:55:48;102267.31;;;10.32;64.71
2339;BME280;1180;51.438;6.978;2023-02-10T12:58:21;102259.59;;;10.34;64.84
2339;BME280;1180;51.438;6.978;2023-02-10T13:01:24;102262.66;;;10.48;62.79
2339;BME280;1180;51.438;6.978;2023-02-10T13:03:58;102260.72;;;10.57;61.53
2339;BME280;1180;51.438;6.978;2023-02-10T13:06:39;102256.56;;;10.52;61.23
2339;BME280;1180;51.438;6.978;2023-02-10T13:09:30;102255.28;;;10.69;61.38
2339;BME280;1180;51.438;6.978;2023-02-10T13:12:23;102250.47;;;10.57;60.57
2339;BME280;1180;51.438;6.978;2023-02-10T13:14:52;102252.22;;;10.54;60.96
2339;BME280;1180;51.438;6.978;2023-02-10T13:17:19;102249.75;;;10.51;60.59
2339;BME280;1180;51.438;6.978;2023-02-10T13:25:06;102252.44;;;10.78;57.39
2339;BME280;1180;51.438;6.978;2023-02-10T13:28:05;102243.50;;;10.62;56.69
2339;BME280;1180;51.438;6.978;2023-02-10T13:30:53;102240.06;;;10.61;57.09
2339;BME280;1180;51.438;6.978;2023-02-10T13:36:17;102236.47;;;10.98;63.61
2339;BME280;1180;51.438;6.978;2023-02-10T13:38:46;102227.47;;;11.13;60.20
2339;BME280;1180;51.438;6.978;2023-02-10T13:41:35;102232.50;;;11.17;58.48
2339;BME280;1180;51.438;6.978;2023-02-10T13:44:36;102237.31;;;11.29;58.61
2339;BME280;1180;51.438;6.978;2023-02-10T13:49:36;102227.97;;;11.25;59.47
2339;BME280;1180;51.438;6.978;2023-02-10T13:52:12;102223.13;;;11.16;60.64
2339;BME280;1180;51.438;6.978;2023-02-10T13:54:38;102218.16;;;11.09;60.59
2339;BME280;1180;51.438;6.978;2023-02-10T13:57:04;102209.19;;;11.23;60.86
2339;BME280;1180;51.438;6.978;2023-02-10T13:59:39;102217.75;;;11.23;60.25
2339;BME280;1180;51.438;6.978;2023-02-10T14:02:22;102215.31;;;11.19;60.47
2339;BME280;1180;51.438;6.978;2023-02-10T14:04:52;102211.03;;;11.19;61.06
2339;BME280;1180;51.438;6.978;2023-02-10T14:12:27;102215.78;;;11.32;61.22
2339;BME280;1180;51.438;6.978;2023-02-10T14:14:53;102218.22;;;11.36;61.16
2339;BME280;1180;51.438;6.978;2023-02-10T14:17:24;102215.66;;;11.36;60.94
2339;BME280;1180;51.438;6.978;2023-02-10T14:19:55;102211.41;;;11.35;60.95
2339;BME280;1180;51.438;6.978;2023-02-10T14:24:49;102192.34;;;11.95;61.24
2339;BME280;1180;51.438;6.978;2023-02-10T14:27:16;102200.16;;;11.92;59.12
2339;BME280;1180;51.438;6.978;2023-02-10T14:29:59;102196.75;;;11.91;58.41
2339;BME280;1180;51.438;6.978;2023-02-10T14:32:29;102199.84;;;11.76;58.25
2339;BME280;1180;51.438;6.978;2023-02-10T14:35:01;102202.72;;;11.66;61.09
2339;BME280;1180;51.438;6.978;2023-02-10T14:37:27;102203.59;;;11.65;59.60
2339;BME280;1180;51.438;6.978;2023-02-10T14:40:02;102198.75;;;11.56;60.02
2339;BME280;1180;51.438;6.978;2023-02-10T14:42:30;102197.13;;;11.53;59.25
2339;BME280;1180;51.438;6.978;2023-02-10T14:45:01;102194.69;;;11.49;59.81
2339;BME280;1180;51.438;6.978;2023-02-10T14:47:32;102200.22;;;11.36;59.61
2339;BME280;1180;51.438;6.978;2023-02-10T14:49:58;102200.84;;;11.43;59.42
2339;BME280;1180;51.438;6.978;2023-02-10T14:52:32;102196.66;;;11.40;59.85
2339;BME280;1180;51.438;6.978;2023-02-10T14:54:58;102195.13;;;11.35;61.88
2339;BME280;1180;51.438;6.978;2023-02-10T14:57:24;102193.88;;;11.48;61.84
2339;BME280;1180;51.438;6.978;2023-02-10T14:59:58;102188.88;;;11.42;59.09
2339;BME280;1180;51.438;6.978;2023-02-10T15:02:29;102200.41;;;11.30;59.22
2339;BME280;1180;51.438;6.978;2023-02-10T15:04:57;102200.84;;;11.16;59.13
2339;BME280;1180;51.438;6.978;2023-02-10T15:07:31;102200.84;;;11.16;59.76
2339;BME280;1180;51.438;6.978;2023-02-10T15:10:00;102194.16;;;11.10;59.86
2339;BME280;1180;51.438;6.978;2023-02-10T15:12:27;102197.00;;;11.01;59.90
2339;BME280;1180;51.438;6.978;2023-02-10T15:17:40;102201.19;;;11.04;59.84
2339;BME280;1180;51.438;6.978;2023-02-10T15:22:48;102207.47;;;10.95;60.00
2339;BME280;1180;51.438;6.978;2023-02-10T15:25:34;102211.38;;;11.07;60.15